createdAt,value
2019-06-04T00:00:32.068Z,65.90
2019-06-04T00:03:01.947Z,66.30
2019-06-04T00:05:30.636Z,66.70
2019-06-04T00:07:59.514Z,65.00
2019-06-04T00:10:27.997Z,64.10
2019-06-04T00:12:57.524Z,65.00
2019-06-04T00:15:25.931Z,63.40
2019-06-04T00:17:55.098Z,59.90
2019-06-04T00:20:23.483Z,62.50
2019-06-04T00:22:51.793Z,65.10
2019-06-04T00:25:20.010Z,68.70
2019-06-04T00:27:48.410Z,68.60
2019-06-04T00:30:28.149Z,70.60
2019-06-04T00:32:56.585Z,70.60
2019-06-04T00:35:24.804Z,71.00
2019-06-04T00:37:53.120Z,73.00
2019-06-04T00:40:28.082Z,72.20
2019-06-04T00:42:56.596Z,72.40
2019-06-04T00:45:24.993Z,74.20
2019-06-04T00:47:53.257Z,75.70
2019-06-04T00:50:21.653Z,76.80
2019-06-04T00:52:49.978Z,77.20
2019-06-04T00:55:27.199Z,77.60
2019-06-04T00:57:58.224Z,77.40
2019-06-04T01:00:27.633Z,78.70
2019-06-04T01:02:55.824Z,79.50
2019-06-04T01:05:24.139Z,80.50
2019-06-04T01:07:52.739Z,79.90
2019-06-04T01:10:21.101Z,81.60
2019-06-04T01:12:49.491Z,82.60
2019-06-04T01:15:25.745Z,84.40
2019-06-04T01:17:48.331Z,86.50
2019-06-04T01:20:55.763Z,85.20
2019-06-04T01:23:24.072Z,83.50
2019-06-04T01:25:52.466Z,82.20
2019-06-04T01:28:21.018Z,82.70
2019-06-04T01:30:49.691Z,82.90
2019-06-04T01:33:18.275Z,83.30
2019-06-04T01:35:46.513Z,83.60
2019-06-04T01:38:14.899Z,82.60
2019-06-04T01:40:43.109Z,83.60
2019-06-04T01:43:11.665Z,83.40
2019-06-04T01:45:40.027Z,84.30
2019-06-04T01:48:09.910Z,84.80
2019-06-04T01:50:38.354Z,85.40
2019-06-04T01:53:06.991Z,85.90
2019-06-04T01:55:36.474Z,86.10
2019-06-04T01:58:20.664Z,85.70
2019-06-04T02:01:09.122Z,85.10
2019-06-04T02:03:43.746Z,84.80
2019-06-04T02:06:12.044Z,85.60
2019-06-04T02:08:40.349Z,85.20
2019-06-04T02:11:08.658Z,85.30
2019-06-04T02:13:36.916Z,84.60
2019-06-04T02:16:14.180Z,85.50
2019-06-04T02:18:35.574Z,85.40
2019-06-04T02:21:03.999Z,85.80
2019-06-04T02:23:32.310Z,85.80
2019-06-04T02:26:00.662Z,85.90
2019-06-04T02:28:29.980Z,87.00
2019-06-04T02:30:59.138Z,87.00
2019-06-04T02:33:27.384Z,86.80
2019-06-04T02:35:55.689Z,87.00
2019-06-04T02:38:23.864Z,87.70
2019-06-04T02:40:52.801Z,87.10
2019-06-04T02:43:21.091Z,87.30
2019-06-04T02:45:50.502Z,88.80
2019-06-04T02:48:24.691Z,89.00
2019-06-04T02:50:55.029Z,89.80
2019-06-04T02:53:23.333Z,90.80
2019-06-04T02:55:53.106Z,91.10
2019-06-04T02:58:24.506Z,91.50
2019-06-04T03:01:02.992Z,91.60
2019-06-04T03:03:34.838Z,92.40
2019-06-04T03:06:05.782Z,92.30
2019-06-04T03:08:36.223Z,92.40
2019-06-04T03:11:04.646Z,92.10
2019-06-04T03:13:32.988Z,92.50
2019-06-04T03:16:01.339Z,92.30
2019-06-04T03:18:29.641Z,92.40
2019-06-04T03:20:57.882Z,92.70
2019-06-04T03:23:26.188Z,92.70
2019-06-04T03:25:54.576Z,92.70
2019-06-04T03:28:23.105Z,92.40
2019-06-04T03:30:51.507Z,92.00
2019-06-04T03:33:50.036Z,92.20
2019-06-04T03:35:50.546Z,93.20
2019-06-04T03:38:19.182Z,93.90
2019-06-04T03:40:47.644Z,94.40
2019-06-04T03:43:16.031Z,94.70
2019-06-04T03:45:44.367Z,94.50
2019-06-04T03:48:14.071Z,95.00
2019-06-04T03:50:42.631Z,95.70
2019-06-04T03:53:12.227Z,96.50
2019-06-04T03:55:40.731Z,97.50
2019-06-04T03:58:09.088Z,97.90
2019-06-04T04:00:37.454Z,98.00
2019-06-04T04:03:06.826Z,98.00
2019-06-04T04:05:35.405Z,98.00
2019-06-04T04:08:04.161Z,96.30
2019-06-04T04:10:32.593Z,95.30
2019-06-04T04:13:00.941Z,94.20
2019-06-04T04:15:29.152Z,93.80
2019-06-04T04:17:57.486Z,93.60
2019-06-04T04:20:25.911Z,91.80
2019-06-04T04:22:54.112Z,92.30
2019-06-04T04:25:23.893Z,90.30
2019-06-04T04:27:52.732Z,88.80
2019-06-04T04:30:21.221Z,85.50
2019-06-04T04:32:49.609Z,86.10
2019-06-04T04:35:19.228Z,85.10
2019-06-04T04:37:49.111Z,83.80
2019-06-04T04:40:18.250Z,82.20
2019-06-04T04:42:47.121Z,78.60
2019-06-04T04:45:15.621Z,78.30
2019-06-04T04:47:44.034Z,77.10
2019-06-04T04:50:14.304Z,76.50
2019-06-04T04:52:42.676Z,76.60
2019-06-04T04:55:11.399Z,76.40
2019-06-04T04:57:39.633Z,78.20
2019-06-04T05:00:09.391Z,78.90
2019-06-04T05:02:37.778Z,79.90
2019-06-04T05:05:07.256Z,76.60
2019-06-04T05:07:37.991Z,76.50
2019-06-04T05:10:07.846Z,74.60
2019-06-04T05:12:38.046Z,74.40
2019-06-04T05:15:06.787Z,71.20
2019-06-04T05:17:37.511Z,73.20
2019-06-04T05:20:06.983Z,72.30
2019-06-04T05:22:35.606Z,74.60
2019-06-04T05:25:04.783Z,72.30
2019-06-04T05:27:33.154Z,72.20
2019-06-04T05:30:01.498Z,69.10
2019-06-04T05:32:30.161Z,67.00
2019-06-04T05:35:04.115Z,64.80
2019-06-04T05:37:29.178Z,61.60
2019-06-04T05:39:57.693Z,60.20
2019-06-04T05:42:26.401Z,60.10
2019-06-04T05:44:54.661Z,61.70
2019-06-04T05:47:22.922Z,63.20
2019-06-04T05:49:52.118Z,58.90
2019-06-04T05:52:20.353Z,57.60
2019-06-04T05:54:48.758Z,56.80
2019-06-04T05:57:16.998Z,53.20
2019-06-04T05:59:45.220Z,52.50
2019-06-04T06:02:13.791Z,55.20
2019-06-04T06:04:42.176Z,58.80
2019-06-04T06:07:10.386Z,52.10
2019-06-04T06:09:40.663Z,53.50
2019-06-04T06:12:17.228Z,51.60
2019-06-04T06:15:02.289Z,51.00
2019-06-04T06:17:32.091Z,48.90
2019-06-04T06:20:00.411Z,48.10
2019-06-04T06:22:28.845Z,51.90
2019-06-04T06:24:58.491Z,48.30
2019-06-04T06:27:26.834Z,49.70
2019-06-04T06:29:55.135Z,50.20
2019-06-04T06:32:24.563Z,47.80
2019-06-04T06:34:53.011Z,47.00
2019-06-04T06:37:21.427Z,47.60
2019-06-04T06:39:49.662Z,48.40
2019-06-04T06:42:17.914Z,47.10
2019-06-04T06:44:46.216Z,46.00
2019-06-04T06:47:14.519Z,43.50
2019-06-04T06:49:42.957Z,42.30
2019-06-04T06:52:11.446Z,40.70
2019-06-04T06:54:40.942Z,41.70
2019-06-04T06:57:09.296Z,37.80
2019-06-04T06:59:38.912Z,33.60
2019-06-04T07:02:23.337Z,31.40
2019-06-04T07:04:37.989Z,31.30
2019-06-04T07:07:06.191Z,32.30
2019-06-04T07:09:37.389Z,30.10
2019-06-04T07:12:05.975Z,28.40
2019-06-04T07:14:36.918Z,31.10
2019-06-04T07:17:05.816Z,29.80
2019-06-04T07:19:35.468Z,27.70
2019-06-04T07:22:04.158Z,27.30
2019-06-04T07:24:33.786Z,27.90
2019-06-04T07:27:02.380Z,26.80
2019-06-04T07:29:30.707Z,27.80
2019-06-04T07:31:59.081Z,26.60
2019-06-04T07:34:27.633Z,25.80
2019-06-04T07:36:55.934Z,26.80
2019-06-04T07:39:24.247Z,25.50
2019-06-04T07:41:52.623Z,25.20
2019-06-04T07:44:20.850Z,25.00
2019-06-04T07:46:49.254Z,24.10
2019-06-04T07:49:17.504Z,24.40
2019-06-04T07:51:45.729Z,23.70
2019-06-04T07:54:14.946Z,24.60
2019-06-04T07:56:43.335Z,24.80
2019-06-04T07:59:15.737Z,23.90
2019-06-04T08:02:03.025Z,24.60
2019-06-04T08:04:12.152Z,25.40
2019-06-04T08:06:54.897Z,25.20
2019-06-04T08:09:10.761Z,24.70
2019-06-04T08:11:40.706Z,24.10
2019-06-04T08:14:09.296Z,24.20
2019-06-04T08:16:37.783Z,23.90
2019-06-04T08:19:06.086Z,23.30
2019-06-04T08:21:50.029Z,23.10
2019-06-04T08:24:05.633Z,24.70
2019-06-04T08:26:36.014Z,23.40
2019-06-04T08:29:05.454Z,23.20
2019-06-04T08:31:34.506Z,23.40
2019-06-04T08:34:02.986Z,23.60
2019-06-04T08:36:31.215Z,21.70
2019-06-04T08:38:59.470Z,22.00
2019-06-04T08:41:28.125Z,22.50
2019-06-04T08:43:56.334Z,23.30
2019-06-04T08:46:24.794Z,23.00
2019-06-04T08:48:53.154Z,22.30
2019-06-04T08:51:21.476Z,21.40
2019-06-04T08:53:49.700Z,22.30
2019-06-04T08:56:19.331Z,22.20
2019-06-04T08:58:51.071Z,21.00
2019-06-04T09:01:20.069Z,21.40
2019-06-04T09:03:50.288Z,22.10
2019-06-04T09:06:21.585Z,22.10
2019-06-04T09:08:51.930Z,22.10
2019-06-04T09:11:21.263Z,22.00
2019-06-04T09:13:49.498Z,21.20
2019-06-04T09:16:18.172Z,20.90
2019-06-04T09:18:46.552Z,20.10
2019-06-04T09:21:14.813Z,21.30
2019-06-04T09:23:43.562Z,20.70
2019-06-04T09:26:13.305Z,21.00
2019-06-04T09:28:43.117Z,21.40
2019-06-04T09:31:12.373Z,21.50
2019-06-04T09:33:41.344Z,19.60
2019-06-04T09:36:10.015Z,20.00
2019-06-04T09:38:40.534Z,19.50
2019-06-04T09:41:08.572Z,22.20
2019-06-04T09:43:36.813Z,21.10
2019-06-04T09:46:05.659Z,20.00
2019-06-04T09:48:33.996Z,19.80
2019-06-04T09:51:02.231Z,20.50
2019-06-04T09:53:30.769Z,19.10
2019-06-04T09:55:58.976Z,18.70
2019-06-04T09:58:30.154Z,20.20
2019-06-04T10:00:57.467Z,19.20
2019-06-04T10:03:27.574Z,17.30
2019-06-04T10:05:56.092Z,18.30
2019-06-04T10:08:25.302Z,20.70
2019-06-04T10:10:53.723Z,19.60
2019-06-04T10:13:22.049Z,19.30
2019-06-04T10:15:51.276Z,18.80
2019-06-04T10:18:19.923Z,18.90
2019-06-04T10:20:49.777Z,18.40
2019-06-04T10:23:18.401Z,18.60
2019-06-04T10:25:48.052Z,18.80
2019-06-04T10:28:16.635Z,17.80
2019-06-04T10:30:45.989Z,17.70
2019-06-04T10:33:15.451Z,18.10
2019-06-04T10:35:44.699Z,18.50
2019-06-04T10:38:26.978Z,15.90
2019-06-04T10:40:45.459Z,17.20
2019-06-04T10:43:13.748Z,16.60
2019-06-04T10:45:43.051Z,19.20
2019-06-04T10:48:11.452Z,17.60
2019-06-04T10:50:39.908Z,18.80
2019-06-04T10:53:08.920Z,17.50
2019-06-04T10:55:38.279Z,17.50
2019-06-04T10:58:08.306Z,17.10
2019-06-04T11:00:43.258Z,15.90
2019-06-04T11:03:11.904Z,16.70
2019-06-04T11:05:41.414Z,18.10
2019-06-04T11:08:09.893Z,17.70
2019-06-04T11:10:38.339Z,17.40
2019-06-04T11:13:07.564Z,16.20
2019-06-04T11:15:36.866Z,16.80
2019-06-04T11:18:06.635Z,17.60
2019-06-04T11:20:36.219Z,16.80
2019-06-04T11:23:04.771Z,15.50
2019-06-04T11:25:33.155Z,17.80
2019-06-04T11:28:01.470Z,16.80
2019-06-04T11:30:29.937Z,17.10
2019-06-04T11:32:58.285Z,16.70
2019-06-04T11:35:26.603Z,17.30
2019-06-04T11:37:56.366Z,18.30
2019-06-04T11:40:25.186Z,17.90
2019-06-04T11:42:59.432Z,16.50
2019-06-04T11:45:45.845Z,15.80
2019-06-04T11:48:21.115Z,16.80
2019-06-04T11:50:45.526Z,16.40
2019-06-04T11:53:15.451Z,17.00
2019-06-04T11:55:43.916Z,16.60
2019-06-04T11:58:13.399Z,16.10
2019-06-04T12:00:56.751Z,15.90
2019-06-04T12:03:22.339Z,16.80
2019-06-04T12:05:50.570Z,17.20
2019-06-04T12:08:18.900Z,17.00
2019-06-04T12:10:47.310Z,18.30
2019-06-04T12:13:15.941Z,16.40
2019-06-04T12:15:44.358Z,16.00
2019-06-04T12:18:12.922Z,17.00
2019-06-04T12:20:41.490Z,17.60
2019-06-04T12:23:30.179Z,17.70
2019-06-04T12:25:40.255Z,17.80
2019-06-04T12:28:08.980Z,17.90
2019-06-04T12:30:40.028Z,17.40
2019-06-04T12:33:09.490Z,17.70
2019-06-04T12:35:37.906Z,17.90
2019-06-04T12:38:09.575Z,16.70
2019-06-04T12:40:37.550Z,16.30
2019-06-04T12:43:07.568Z,15.80
2019-06-04T12:45:36.342Z,17.20
2019-06-04T12:48:06.934Z,17.60
2019-06-04T12:50:36.774Z,17.40
2019-06-04T12:53:09.557Z,16.10
2019-06-04T12:55:39.128Z,17.60
2019-06-04T12:58:10.097Z,16.70
2019-06-04T13:00:40.191Z,16.70
2019-06-04T13:03:11.088Z,16.20
2019-06-04T13:05:43.179Z,17.10
2019-06-04T13:08:24.948Z,17.90
2019-06-04T13:10:43.316Z,16.50
2019-06-04T13:13:13.983Z,17.40
2019-06-04T13:15:43.642Z,18.30
2019-06-04T13:18:21.915Z,18.30
2019-06-04T13:20:44.512Z,19.10
2019-06-04T13:23:13.991Z,17.70
2019-06-04T13:25:43.036Z,17.40
2019-06-04T13:28:15.280Z,17.20
2019-06-04T13:30:50.771Z,18.30
2019-06-04T13:33:37.362Z,17.80
2019-06-04T13:36:07.317Z,17.70
2019-06-04T13:38:35.894Z,16.50
2019-06-04T13:41:05.200Z,16.90
2019-06-04T13:43:33.821Z,17.10
2019-06-04T13:46:03.023Z,16.60
2019-06-04T13:48:31.548Z,17.60
2019-06-04T13:51:01.522Z,18.10
2019-06-04T13:53:29.998Z,18.30
2019-06-04T13:55:58.338Z,18.30
2019-06-04T13:58:27.233Z,18.20
2019-06-04T14:00:55.473Z,16.90
2019-06-04T14:03:23.741Z,17.60
2019-06-04T14:06:04.833Z,17.10
2019-06-04T14:08:33.822Z,18.50
2019-06-04T14:11:03.414Z,19.80
2019-06-04T14:13:31.836Z,19.60
2019-06-04T14:16:00.203Z,19.70
2019-06-04T14:18:29.433Z,20.30
2019-06-04T14:20:57.828Z,20.30
2019-06-04T14:23:26.306Z,20.50
2019-06-04T14:26:35.203Z,19.70
2019-06-04T14:29:05.185Z,19.60
2019-06-04T14:31:33.848Z,19.50
2019-06-04T14:34:02.465Z,18.70
2019-06-04T14:36:30.826Z,19.30
2019-06-04T14:38:59.098Z,20.40
2019-06-04T14:41:27.436Z,19.00
2019-06-04T14:43:55.888Z,19.30
2019-06-04T14:46:24.380Z,19.40
2019-06-04T14:48:52.768Z,20.70
2019-06-04T14:51:22.850Z,20.40
2019-06-04T14:53:51.443Z,19.90
2019-06-04T14:56:20.643Z,19.40
2019-06-04T14:58:48.888Z,19.90
2019-06-04T15:01:17.345Z,19.90
2019-06-04T15:03:45.714Z,19.80
2019-06-04T15:06:15.023Z,20.70
2019-06-04T15:08:43.445Z,20.70
2019-06-04T15:11:28.409Z,20.90
2019-06-04T15:13:41.839Z,20.90
2019-06-04T15:16:10.601Z,20.60
2019-06-04T15:18:40.453Z,21.10
2019-06-04T15:21:10.419Z,21.30
2019-06-04T15:23:56.843Z,22.30
2019-06-04T15:26:26.583Z,22.30
2019-06-04T15:28:55.073Z,21.70
2019-06-04T15:31:24.234Z,22.40
2019-06-04T15:33:52.500Z,22.60
2019-06-04T15:36:24.786Z,22.30
2019-06-04T15:38:51.258Z,23.30
2019-06-04T15:41:20.233Z,23.00
2019-06-04T15:43:50.578Z,23.10
2019-06-04T15:46:19.197Z,22.60
2019-06-04T15:48:47.736Z,23.50
2019-06-04T15:51:16.506Z,24.10
2019-06-04T15:53:45.241Z,24.20
2019-06-04T15:56:14.722Z,23.40
2019-06-04T15:58:43.271Z,23.90
2019-06-04T16:01:11.495Z,24.20
2019-06-04T16:03:49.530Z,24.10
2019-06-04T16:06:10.133Z,24.40
2019-06-04T16:08:38.363Z,24.30
2019-06-04T16:11:06.906Z,23.90
2019-06-04T16:13:38.378Z,23.90
2019-06-04T16:16:07.625Z,24.30
2019-06-04T16:18:36.164Z,24.60
2019-06-04T16:21:05.018Z,24.50
2019-06-04T16:23:33.375Z,24.60
2019-06-04T16:26:01.575Z,24.80
2019-06-04T16:28:30.524Z,25.10
2019-06-04T16:30:58.904Z,24.80
2019-06-04T16:33:27.288Z,25.50
2019-06-04T16:35:55.696Z,25.60
2019-06-04T16:38:30.219Z,25.60
2019-06-04T16:40:58.857Z,26.20
2019-06-04T16:43:27.575Z,25.70
2019-06-04T16:45:55.973Z,25.90
2019-06-04T16:48:25.010Z,26.60
2019-06-04T16:50:53.450Z,26.50
2019-06-04T16:53:23.545Z,27.30
2019-06-04T16:56:09.876Z,27.50
2019-06-04T16:58:38.325Z,27.60
2019-06-04T17:01:06.549Z,27.50
2019-06-04T17:03:34.819Z,27.40
2019-06-04T17:06:03.240Z,27.50
2019-06-04T17:08:31.478Z,28.20
2019-06-04T17:11:00.858Z,28.80
2019-06-04T17:13:31.005Z,29.70
2019-06-04T17:15:59.405Z,29.90
2019-06-04T17:18:29.046Z,31.00
2019-06-04T17:20:57.481Z,32.80
2019-06-04T17:23:27.294Z,33.50
2019-06-04T17:25:56.754Z,34.20
2019-06-04T17:28:26.158Z,34.80
2019-06-04T17:30:54.630Z,35.20
2019-06-04T17:33:24.183Z,34.90
2019-06-04T17:35:52.966Z,35.70
2019-06-04T17:38:22.651Z,36.10
2019-06-04T17:40:51.038Z,36.00
2019-06-04T17:43:19.371Z,36.10
2019-06-04T17:45:47.697Z,35.90
2019-06-04T17:48:16.124Z,36.00
2019-06-04T17:50:44.456Z,37.60
2019-06-04T17:53:12.889Z,38.30
2019-06-04T17:55:41.168Z,39.70
2019-06-04T17:58:09.590Z,39.50
2019-06-04T18:00:38.283Z,40.50
2019-06-04T18:03:07.471Z,38.70
2019-06-04T18:05:37.271Z,39.40
2019-06-04T18:08:06.405Z,39.70
2019-06-04T18:10:36.649Z,40.30
2019-06-04T18:13:23.585Z,40.80
2019-06-04T18:15:36.410Z,42.90
2019-06-04T18:20:52.371Z,43.60
2019-06-04T18:23:20.910Z,45.30
2019-06-04T18:25:49.294Z,45.20
2019-06-04T18:28:17.607Z,46.40
2019-06-04T18:30:45.986Z,46.70
2019-06-04T18:33:14.291Z,44.90
2019-06-04T18:35:42.637Z,43.20
2019-06-04T18:38:11.095Z,41.90
2019-06-04T18:40:39.443Z,40.70
2019-06-04T18:43:07.804Z,41.40
2019-06-04T18:45:37.029Z,40.70
2019-06-04T18:48:05.468Z,40.90
2019-06-04T18:50:33.799Z,41.40
2019-06-04T18:53:39.343Z,43.00
2019-06-04T18:56:07.796Z,43.30
2019-06-04T18:58:37.182Z,43.10
2019-06-04T19:01:08.358Z,44.00
2019-06-04T19:03:36.845Z,44.70
2019-06-04T19:06:05.149Z,44.30
2019-06-04T19:08:35.000Z,44.10
2019-06-04T19:11:21.866Z,44.40
2019-06-04T19:14:02.621Z,42.70
2019-06-04T19:16:39.426Z,42.80
2019-06-04T19:19:29.307Z,42.00
2019-06-04T19:21:56.444Z,41.40
2019-06-04T19:24:24.787Z,41.40
2019-06-04T19:26:54.076Z,42.00
2019-06-04T19:29:22.546Z,41.40
2019-06-04T19:32:09.232Z,41.90
2019-06-04T19:37:41.731Z,42.80
2019-06-04T19:40:13.655Z,42.90
2019-06-04T19:42:59.891Z,43.90
2019-06-04T19:45:28.146Z,44.10
2019-06-04T19:47:56.506Z,44.20
2019-06-04T19:50:42.713Z,43.10
2019-06-04T19:53:11.147Z,43.70
2019-06-04T19:55:39.533Z,44.70
2019-06-04T19:58:10.001Z,45.20
2019-06-04T20:00:40.544Z,47.80
2019-06-04T20:03:26.763Z,52.40
2019-06-04T20:06:13.082Z,58.40
2019-06-04T20:08:42.352Z,60.10
2019-06-04T20:11:14.321Z,63.50
2019-06-04T20:13:47.829Z,65.00
2019-06-04T20:16:13.338Z,63.40
2019-06-04T20:18:51.978Z,62.80
2019-06-04T20:21:39.994Z,62.60
2019-06-04T20:24:08.532Z,62.20
2019-06-04T20:26:38.186Z,63.50
2019-06-04T20:29:06.820Z,63.20
2019-06-04T20:31:35.375Z,63.60
2019-06-04T20:34:04.541Z,62.80
2019-06-04T20:36:32.926Z,61.80
2019-06-04T20:39:19.234Z,61.50
2019-06-04T20:41:48.002Z,61.90
2019-06-04T20:44:16.419Z,63.10
2019-06-04T20:46:46.701Z,62.10
2019-06-04T20:49:27.543Z,61.70
2019-06-04T20:51:46.661Z,61.00
2019-06-04T20:54:15.070Z,60.00
2019-06-04T20:59:47.914Z,58.10
2019-06-04T21:02:16.658Z,56.60
2019-06-04T21:04:45.077Z,56.50
2019-06-04T21:07:13.509Z,56.50
2019-06-04T21:09:43.074Z,59.70
2019-06-04T21:14:58.146Z,59.90
2019-06-04T21:17:26.451Z,62.80
2019-06-04T21:19:54.682Z,63.00
2019-06-04T21:22:23.229Z,63.30
2019-06-04T21:24:51.649Z,64.50
2019-06-04T21:27:20.081Z,68.50
2019-06-04T21:29:49.847Z,72.60
2019-06-04T21:32:18.521Z,76.10
2019-06-04T21:34:47.058Z,76.00
2019-06-04T21:37:15.608Z,77.40
2019-06-04T21:39:48.603Z,78.20
2019-06-04T21:42:15.906Z,78.70
2019-06-04T21:44:46.611Z,80.60
2019-06-04T21:47:14.404Z,81.00
2019-06-04T21:49:42.753Z,81.20
2019-06-04T21:52:11.068Z,81.30
2019-06-04T21:54:39.371Z,80.50
2019-06-04T21:57:07.726Z,78.30
2019-06-04T21:59:54.763Z,77.00
2019-06-04T22:02:26.912Z,77.20
2019-06-04T22:04:56.464Z,77.80
2019-06-04T22:07:24.958Z,78.40
2019-06-04T22:09:54.322Z,79.00
2019-06-04T22:12:22.624Z,78.60
2019-06-04T22:14:52.152Z,79.30
2019-06-04T22:17:20.752Z,80.40
2019-06-04T22:19:50.611Z,80.60
2019-06-04T22:22:18.897Z,80.10
2019-06-04T22:24:47.823Z,79.00
2019-06-04T22:27:16.251Z,78.80
2019-06-04T22:29:44.574Z,79.10
2019-06-04T22:32:12.957Z,78.40
2019-06-04T22:34:41.275Z,79.40
2019-06-04T22:37:09.596Z,79.90
2019-06-04T22:39:38.029Z,80.00
2019-06-04T22:42:06.353Z,79.60
2019-06-04T22:44:34.686Z,79.60
2019-06-04T22:47:03.056Z,79.30
2019-06-04T22:49:31.466Z,79.70
2019-06-04T22:52:01.545Z,79.70
2019-06-04T22:54:30.142Z,80.30
2019-06-04T22:56:59.069Z,79.10
2019-06-04T22:59:27.515Z,79.30
2019-06-04T23:01:56.212Z,80.50
2019-06-04T23:04:24.933Z,79.80
2019-06-04T23:06:54.429Z,80.10
2019-06-04T23:09:22.940Z,79.70
2019-06-04T23:11:51.256Z,80.40
2019-06-04T23:14:19.584Z,81.70
2019-06-04T23:16:47.939Z,82.40
2019-06-04T23:19:16.172Z,83.70
2019-06-04T23:21:44.521Z,82.60
2019-06-04T23:24:12.788Z,81.70
2019-06-04T23:26:40.991Z,81.60
2019-06-04T23:29:09.237Z,80.70
2019-06-04T23:31:37.704Z,80.70
2019-06-04T23:34:10.853Z,81.90
2019-06-04T23:36:36.236Z,81.00
2019-06-04T23:39:06.593Z,81.10
2019-06-04T23:41:34.913Z,81.10
2019-06-04T23:44:04.383Z,82.20
2019-06-04T23:46:32.793Z,82.90
2019-06-04T23:49:05.011Z,82.50
2019-06-04T23:51:32.298Z,82.90
2019-06-04T23:54:01.830Z,83.30
2019-06-04T23:56:30.262Z,82.90
2019-06-04T23:58:59.762Z,82.40
